createdAt,value
2023-05-05T00:01:02.438Z,1.98
2023-05-05T00:03:29.241Z,1.77
2023-05-05T00:05:55.796Z,2.45
2023-05-05T00:08:24.820Z,2.53
2023-05-05T00:10:56.031Z,1.85
2023-05-05T00:13:22.394Z,2.03
2023-05-05T00:15:50.281Z,2.20
2023-05-05T00:18:17.778Z,2.17
2023-05-05T00:20:47.008Z,2.42
2023-05-05T00:23:14.216Z,2.03
2023-05-05T00:25:40.862Z,2.10
2023-05-05T00:28:07.252Z,2.28
2023-05-05T00:30:34.680Z,1.92
2023-05-05T00:33:03.770Z,1.98
2023-05-05T00:35:30.390Z,2.08
2023-05-05T00:37:57.031Z,1.90
2023-05-05T00:40:23.582Z,2.05
2023-05-05T00:42:53.430Z,1.55
2023-05-05T00:45:21.361Z,2.00
2023-05-05T00:47:49.544Z,2.17
2023-05-05T00:50:26.161Z,2.22
2023-05-05T00:52:56.120Z,2.67
2023-05-05T00:55:22.730Z,2.30
2023-05-05T00:57:49.674Z,1.95
2023-05-05T01:00:16.809Z,2.50
2023-05-05T01:02:44.231Z,2.00
2023-05-05T01:05:13.282Z,2.63
2023-05-05T01:08:05.937Z,2.08
2023-05-05T01:10:44.279Z,2.75
2023-05-05T01:13:28.217Z,3.00
2023-05-05T01:16:27.418Z,2.55
2023-05-05T01:19:29.695Z,3.95
2023-05-05T01:22:02.213Z,2.85
2023-05-05T01:24:59.202Z,2.88
2023-05-05T01:28:15.691Z,2.47
2023-05-05T01:31:11.374Z,3.25
2023-05-05T01:33:46.142Z,2.78
2023-05-05T01:36:22.965Z,2.40
2023-05-05T01:38:56.337Z,2.83
2023-05-05T01:41:32.890Z,2.58
2023-05-05T01:44:03.320Z,3.03
2023-05-05T01:46:34.180Z,2.38
2023-05-05T01:49:00.835Z,2.20
2023-05-05T01:51:28.759Z,2.78
2023-05-05T01:54:00.602Z,2.80
2023-05-05T01:56:28.245Z,2.88
2023-05-05T01:58:56.158Z,2.45
2023-05-05T02:01:27.644Z,2.53
2023-05-05T02:03:58.987Z,2.67
2023-05-05T02:06:29.716Z,2.43
2023-05-05T02:08:58.309Z,3.03
2023-05-05T02:11:28.031Z,3.05
2023-05-05T02:13:55.747Z,2.88
2023-05-05T02:16:23.602Z,2.40
2023-05-05T02:18:54.431Z,3.33
2023-05-05T02:21:21.309Z,2.40
2023-05-05T02:23:51.916Z,3.45
2023-05-05T02:26:24.555Z,3.58
2023-05-05T02:29:02.113Z,3.25
2023-05-05T02:31:31.042Z,3.25
2023-05-05T02:33:59.973Z,5.13
2023-05-05T02:36:29.550Z,3.55
2023-05-05T02:39:01.194Z,3.03
2023-05-05T02:41:32.903Z,3.20
2023-05-05T02:44:02.424Z,2.40
2023-05-05T02:46:28.962Z,2.60
2023-05-05T02:48:55.474Z,2.58
2023-05-05T02:51:21.858Z,3.05
2023-05-05T02:53:48.474Z,2.60
2023-05-05T02:56:41.234Z,3.30
2023-05-05T02:59:36.556Z,3.40
2023-05-05T03:02:18.169Z,4.10
2023-05-05T03:04:56.821Z,3.22
2023-05-05T03:07:31.701Z,3.78
2023-05-05T03:10:02.924Z,4.55
2023-05-05T03:12:39.869Z,4.00
2023-05-05T03:15:11.882Z,3.40
2023-05-05T03:17:40.283Z,2.85
2023-05-05T03:20:08.121Z,3.95
2023-05-05T03:22:37.872Z,3.55
2023-05-05T03:25:05.230Z,2.35
2023-05-05T03:27:31.865Z,4.32
2023-05-05T03:29:58.337Z,4.40
2023-05-05T03:32:24.802Z,3.03
2023-05-05T03:34:51.267Z,3.83
2023-05-05T03:37:17.604Z,3.30
2023-05-05T03:39:43.993Z,2.83
2023-05-05T03:42:10.483Z,3.30
2023-05-05T03:44:37.039Z,4.20
2023-05-05T03:47:03.461Z,3.67
2023-05-05T03:49:29.916Z,2.80
2023-05-05T03:51:58.793Z,3.70
2023-05-05T03:54:25.411Z,4.45
2023-05-05T03:56:51.749Z,3.33
2023-05-05T03:59:18.132Z,2.72
2023-05-05T04:01:46.968Z,4.05
2023-05-05T04:04:13.475Z,3.63
2023-05-05T04:06:40.032Z,3.08
2023-05-05T04:09:06.550Z,4.53
2023-05-05T04:11:33.088Z,4.10
2023-05-05T04:14:02.297Z,5.00
2023-05-05T04:16:28.896Z,3.83
2023-05-05T04:18:55.450Z,4.35
2023-05-05T04:21:21.973Z,3.83
2023-05-05T04:23:48.959Z,4.40
2023-05-05T04:26:15.494Z,5.22
2023-05-05T04:28:41.973Z,5.32
2023-05-05T04:31:08.675Z,4.28
2023-05-05T04:33:35.110Z,3.15
2023-05-05T04:36:01.542Z,3.50
2023-05-05T04:38:28.245Z,3.50
2023-05-05T04:40:54.715Z,3.28
2023-05-05T04:43:21.085Z,3.90
2023-05-05T04:45:54.499Z,4.15
2023-05-05T04:48:23.307Z,3.05
2023-05-05T04:50:49.654Z,3.10
2023-05-05T04:53:16.971Z,4.28
2023-05-05T04:55:43.439Z,4.20
2023-05-05T04:58:17.379Z,3.38
2023-05-05T05:00:43.734Z,5.32
2023-05-05T05:03:12.294Z,5.03
2023-05-05T05:05:38.819Z,5.95
2023-05-05T05:08:05.540Z,5.20
2023-05-05T05:10:35.001Z,5.50
2023-05-05T05:13:01.729Z,5.32
2023-05-05T05:15:28.116Z,4.95
2023-05-05T05:17:54.910Z,5.05
2023-05-05T05:20:24.253Z,5.13
2023-05-05T05:22:50.951Z,4.72
2023-05-05T05:25:17.453Z,5.15
2023-05-05T05:27:44.142Z,5.93
2023-05-05T05:30:11.616Z,5.63
2023-05-05T05:32:40.409Z,5.20
2023-05-05T05:35:07.187Z,5.15
2023-05-05T05:37:36.716Z,5.13
2023-05-05T05:40:05.078Z,4.97
2023-05-05T05:42:31.571Z,5.20
2023-05-05T05:45:00.926Z,4.82
2023-05-05T05:47:28.013Z,4.63
2023-05-05T05:49:54.537Z,5.03
2023-05-05T05:52:20.902Z,4.88
2023-05-05T05:54:47.356Z,4.82
2023-05-05T05:57:16.624Z,4.70
2023-05-05T05:59:45.327Z,5.28
2023-05-05T06:02:12.102Z,5.03
2023-05-05T06:04:38.739Z,5.35
2023-05-05T06:07:08.361Z,5.00
2023-05-05T06:09:34.691Z,4.80
2023-05-05T06:12:03.741Z,4.50
2023-05-05T06:14:30.334Z,4.45
2023-05-05T06:16:56.718Z,4.30
2023-05-05T06:19:23.250Z,4.10
2023-05-05T06:21:51.972Z,4.43
2023-05-05T06:24:20.899Z,3.50
2023-05-05T06:26:47.402Z,4.00
2023-05-05T06:29:13.828Z,4.13
2023-05-05T06:31:40.365Z,3.63
2023-05-05T06:34:07.183Z,3.97
2023-05-05T06:36:33.565Z,3.55
2023-05-05T06:39:00.032Z,3.63
2023-05-05T06:41:28.809Z,3.40
2023-05-05T06:43:55.128Z,3.45
2023-05-05T06:46:21.580Z,3.25
2023-05-05T06:48:48.177Z,3.83
2023-05-05T06:51:15.507Z,3.63
2023-05-05T06:53:41.938Z,3.72
2023-05-05T06:56:11.508Z,3.50
2023-05-05T06:58:37.932Z,3.13
2023-05-05T07:01:05.079Z,3.15
2023-05-05T07:03:31.856Z,3.53
2023-05-05T07:06:00.775Z,3.38
2023-05-05T07:08:27.219Z,3.17
2023-05-05T07:10:53.667Z,3.35
2023-05-05T07:13:20.184Z,3.88
2023-05-05T07:15:46.680Z,2.72
2023-05-05T07:18:16.756Z,3.22
2023-05-05T07:20:46.767Z,2.63
2023-05-05T07:23:15.965Z,2.90
2023-05-05T07:25:42.547Z,2.28
2023-05-05T07:28:09.062Z,3.33
2023-05-05T07:30:35.402Z,3.00
2023-05-05T07:33:01.804Z,2.70
2023-05-05T07:35:28.536Z,2.05
2023-05-05T07:37:54.878Z,2.50
2023-05-05T07:40:21.467Z,2.20
2023-05-05T07:42:48.125Z,2.72
2023-05-05T07:45:17.164Z,2.28
2023-05-05T07:47:43.762Z,2.13
2023-05-05T07:50:13.218Z,1.80
2023-05-05T07:55:14.358Z,1.73
2023-05-05T07:57:41.014Z,1.92
2023-05-05T08:00:08.226Z,2.08
2023-05-05T08:02:35.336Z,1.73
2023-05-05T08:05:01.770Z,1.45
2023-05-05T08:07:28.255Z,1.50
2023-05-05T08:09:56.118Z,1.92
2023-05-05T08:12:22.464Z,1.50
2023-05-05T08:14:48.816Z,2.00
2023-05-05T08:17:16.223Z,1.40
2023-05-05T08:19:42.922Z,1.45
2023-05-05T08:22:09.271Z,1.30
2023-05-05T08:24:36.248Z,1.10
2023-05-05T08:27:03.654Z,1.77
2023-05-05T08:29:30.404Z,1.35
2023-05-05T08:31:57.322Z,1.63
2023-05-05T08:34:23.854Z,1.48
2023-05-05T08:36:50.927Z,1.52
2023-05-05T08:39:17.508Z,1.63
2023-05-05T08:41:43.901Z,1.52
2023-05-05T08:44:10.402Z,1.80
2023-05-05T08:46:42.909Z,1.55
2023-05-05T08:49:15.847Z,1.38
2023-05-05T08:51:44.408Z,1.40
2023-05-05T08:54:17.625Z,1.10
2023-05-05T08:56:48.217Z,1.38
2023-05-05T08:59:15.548Z,1.30
2023-05-05T09:01:42.810Z,1.17
2023-05-05T09:04:09.650Z,1.20
2023-05-05T09:06:37.108Z,1.40
2023-05-05T09:09:03.730Z,1.23
2023-05-05T09:11:30.630Z,1.15
2023-05-05T09:13:57.136Z,1.17
2023-05-05T09:16:26.120Z,1.20
2023-05-05T09:19:02.387Z,1.55
2023-05-05T09:21:29.223Z,0.95
2023-05-05T09:24:12.515Z,0.95
2023-05-05T09:26:43.290Z,1.00
2023-05-05T09:29:10.338Z,1.02
2023-05-05T09:31:37.565Z,1.00
2023-05-05T09:34:17.117Z,0.85
2023-05-05T09:36:48.352Z,0.40
2023-05-05T09:39:19.679Z,0.50
2023-05-05T09:41:47.062Z,0.98
2023-05-05T09:44:21.444Z,0.70
2023-05-05T09:46:52.792Z,1.05
2023-05-05T09:51:49.642Z,0.70
2023-05-05T09:54:27.464Z,0.80
2023-05-05T09:56:55.490Z,0.70
2023-05-05T09:59:23.313Z,0.80
2023-05-05T10:01:50.809Z,0.95
2023-05-05T10:04:30.710Z,0.70
2023-05-05T10:06:58.319Z,0.90
2023-05-05T10:09:31.687Z,0.98
2023-05-05T10:12:01.818Z,0.82
2023-05-05T10:14:32.372Z,0.75
2023-05-05T10:17:01.668Z,0.60
2023-05-05T10:19:32.741Z,0.70
2023-05-05T10:22:08.293Z,0.70
2023-05-05T10:24:39.601Z,0.80
2023-05-05T10:27:17.144Z,0.90
2023-05-05T10:29:57.496Z,1.15
2023-05-05T10:32:53.571Z,0.82
2023-05-05T10:35:27.555Z,0.80
2023-05-05T10:37:54.917Z,0.70
2023-05-05T10:40:25.267Z,0.98
2023-05-05T10:42:54.649Z,0.97
2023-05-05T10:45:21.086Z,0.88
2023-05-05T10:47:50.623Z,1.63
2023-05-05T10:50:32.272Z,0.60
2023-05-05T10:53:23.529Z,0.90
2023-05-05T10:56:21.453Z,0.70
2023-05-05T10:58:59.033Z,1.30
2023-05-05T11:01:33.782Z,1.00
2023-05-05T11:04:20.120Z,0.73
2023-05-05T11:07:10.314Z,0.60
2023-05-05T11:10:04.220Z,0.63
2023-05-05T11:12:32.486Z,0.75
2023-05-05T11:15:26.726Z,0.90
2023-05-05T11:18:06.659Z,0.93
2023-05-05T11:20:40.027Z,0.75
2023-05-05T11:23:07.343Z,0.82
2023-05-05T11:25:40.928Z,1.13
2023-05-05T11:28:14.654Z,0.88
2023-05-05T11:30:59.510Z,0.70
2023-05-05T11:33:30.889Z,1.17
2023-05-05T11:36:03.428Z,1.83
2023-05-05T11:39:17.493Z,0.90
2023-05-05T11:42:10.390Z,1.20
2023-05-05T11:44:40.163Z,0.95
2023-05-05T11:47:06.497Z,0.90
2023-05-05T11:49:36.864Z,0.63
2023-05-05T11:52:06.423Z,0.95
2023-05-05T11:54:35.094Z,0.60
2023-05-05T11:57:08.063Z,1.08
2023-05-05T11:59:51.487Z,0.63
2023-05-05T12:02:19.346Z,0.73
2023-05-05T12:04:46.914Z,0.80
2023-05-05T12:07:22.518Z,0.90
2023-05-05T12:09:50.132Z,1.25
2023-05-05T12:12:17.571Z,0.95
2023-05-05T12:14:52.474Z,0.93
2023-05-05T12:17:23.094Z,0.80
2023-05-05T12:19:51.928Z,0.97
2023-05-05T12:22:28.036Z,0.70
2023-05-05T12:24:58.953Z,0.65
2023-05-05T12:27:27.533Z,0.70
2023-05-05T12:29:56.649Z,0.65
2023-05-05T12:32:25.190Z,0.70
2023-05-05T12:34:57.536Z,0.90
2023-05-05T12:37:25.938Z,0.60
2023-05-05T12:39:54.710Z,0.88
2023-05-05T12:42:22.352Z,0.70
2023-05-05T12:44:49.146Z,1.08
2023-05-05T12:47:30.407Z,0.88
2023-05-05T12:49:57.639Z,0.80
2023-05-05T12:52:24.044Z,0.70
2023-05-05T12:55:02.180Z,0.77
2023-05-05T12:57:28.630Z,0.68
2023-05-05T12:59:55.412Z,0.98
2023-05-05T13:02:33.431Z,0.80
2023-05-05T13:04:59.928Z,1.00
2023-05-05T13:07:26.478Z,0.65
2023-05-05T13:10:07.943Z,0.90
2023-05-05T13:15:00.754Z,0.77
2023-05-05T13:17:27.182Z,1.00
2023-05-05T13:19:53.558Z,0.68
2023-05-05T13:22:20.129Z,0.80
2023-05-05T13:24:52.332Z,0.75
2023-05-05T13:27:22.598Z,0.70
2023-05-05T13:29:49.229Z,0.75
2023-05-05T13:32:18.003Z,0.77
2023-05-05T13:34:46.812Z,0.70
2023-05-05T13:37:13.236Z,0.77
2023-05-05T13:39:39.732Z,1.02
2023-05-05T13:42:06.085Z,0.80
2023-05-05T13:44:32.550Z,0.60
2023-05-05T13:47:01.554Z,0.77
2023-05-05T13:49:30.261Z,0.93
2023-05-05T13:51:57.031Z,1.30
2023-05-05T13:54:23.370Z,5.95
2023-05-05T13:56:49.882Z,1.20
2023-05-05T13:59:16.238Z,1.20
2023-05-05T14:01:42.643Z,0.70
2023-05-05T14:04:09.187Z,0.77
2023-05-05T14:06:38.266Z,0.60
2023-05-05T14:09:06.235Z,0.93
2023-05-05T14:11:32.935Z,0.73
2023-05-05T14:13:59.407Z,1.25
2023-05-05T14:16:25.911Z,0.90
2023-05-05T14:18:52.340Z,0.80
2023-05-05T14:21:19.235Z,0.70
2023-05-05T14:23:48.005Z,0.90
2023-05-05T14:26:14.465Z,1.40
2023-05-05T14:28:42.173Z,0.60
2023-05-05T14:31:08.697Z,0.77
2023-05-05T14:33:35.082Z,0.70
2023-05-05T14:36:01.602Z,0.80
2023-05-05T14:38:33.047Z,0.80
2023-05-05T14:43:28.708Z,0.70
2023-05-05T14:45:55.194Z,0.70
2023-05-05T14:48:22.290Z,0.68
2023-05-05T14:50:51.353Z,0.70
2023-05-05T14:53:18.981Z,0.90
2023-05-05T14:55:45.403Z,0.73
2023-05-05T14:58:12.570Z,0.45
2023-05-05T15:00:39.132Z,0.73
2023-05-05T15:03:05.604Z,0.55
2023-05-05T15:05:32.394Z,0.88
2023-05-05T15:08:01.395Z,0.70
2023-05-05T15:10:27.769Z,0.77
2023-05-05T15:12:54.282Z,0.73
2023-05-05T15:15:20.709Z,0.70
2023-05-05T15:17:47.253Z,0.73
2023-05-05T15:20:13.958Z,0.90
2023-05-05T15:22:40.390Z,0.68
2023-05-05T15:25:10.751Z,0.98
2023-05-05T15:27:38.061Z,0.80
2023-05-05T15:30:05.926Z,0.82
2023-05-05T15:32:32.738Z,0.70
2023-05-05T15:34:59.244Z,0.90
2023-05-05T15:37:25.683Z,0.85
2023-05-05T15:39:55.419Z,0.88
2023-05-05T15:42:21.923Z,0.70
2023-05-05T15:44:48.546Z,0.90
2023-05-05T15:47:14.981Z,0.93
2023-05-05T15:49:41.472Z,1.23
2023-05-05T15:52:08.043Z,1.00
2023-05-05T15:54:37.013Z,0.93
2023-05-05T15:57:03.630Z,1.48
2023-05-05T15:59:30.230Z,1.10
2023-05-05T16:01:58.815Z,1.35
2023-05-05T16:04:30.664Z,1.15
2023-05-05T16:06:59.694Z,1.20
2023-05-05T16:09:26.076Z,1.27
2023-05-05T16:11:55.334Z,1.50
2023-05-05T16:14:24.397Z,1.10
2023-05-05T16:16:50.764Z,1.25
2023-05-05T16:19:18.092Z,1.48
2023-05-05T16:21:48.156Z,1.60
2023-05-05T16:24:16.473Z,1.30
2023-05-05T16:26:43.606Z,1.45
2023-05-05T16:29:10.521Z,1.00
2023-05-05T16:31:36.960Z,1.45
2023-05-05T16:34:04.580Z,1.08
2023-05-05T16:36:31.215Z,1.00
2023-05-05T16:38:58.112Z,0.93
2023-05-05T16:41:25.975Z,1.23
2023-05-05T16:43:55.380Z,1.15
2023-05-05T16:46:21.799Z,1.30
2023-05-05T16:48:48.284Z,1.00
2023-05-05T16:51:17.271Z,1.17
2023-05-05T16:53:47.146Z,1.40
2023-05-05T16:56:15.503Z,1.50
2023-05-05T16:58:41.836Z,1.00
2023-05-05T17:01:08.356Z,1.35
2023-05-05T17:03:34.986Z,1.02
2023-05-05T17:06:01.405Z,1.00
2023-05-05T17:08:28.004Z,1.33
2023-05-05T17:10:55.123Z,1.40
2023-05-05T17:13:26.125Z,1.38
2023-05-05T17:15:52.538Z,1.17
2023-05-05T17:18:21.143Z,1.15
2023-05-05T17:20:49.460Z,0.93
2023-05-05T17:23:16.593Z,0.73
2023-05-05T17:25:43.818Z,0.88
2023-05-05T17:28:10.448Z,1.02
2023-05-05T17:30:37.536Z,0.85
2023-05-05T17:33:06.183Z,1.52
2023-05-05T17:35:32.818Z,1.23
2023-05-05T17:38:01.840Z,1.33
2023-05-05T17:40:28.426Z,1.55
2023-05-05T17:42:54.830Z,1.60
2023-05-05T17:45:21.330Z,1.52
2023-05-05T17:47:49.581Z,1.02
2023-05-05T17:50:16.032Z,2.03
2023-05-05T17:52:43.840Z,1.67
2023-05-05T17:55:10.945Z,1.67
2023-05-05T17:57:37.990Z,1.10
2023-05-05T18:00:06.031Z,1.80
2023-05-05T18:02:32.718Z,1.20
2023-05-05T18:05:01.699Z,1.17
2023-05-05T18:07:28.363Z,1.40
2023-05-05T18:09:55.690Z,1.33
2023-05-05T18:12:24.359Z,2.38
2023-05-05T18:14:50.726Z,1.80
2023-05-05T18:17:18.671Z,1.50
2023-05-05T18:19:47.251Z,1.23
2023-05-05T18:22:14.949Z,1.88
2023-05-05T18:24:41.305Z,1.95
2023-05-05T18:27:07.741Z,1.52
2023-05-05T18:29:35.146Z,1.35
2023-05-05T18:32:01.920Z,1.60
2023-05-05T18:34:29.503Z,1.60
2023-05-05T18:36:58.683Z,1.38
2023-05-05T18:39:25.695Z,1.05
2023-05-05T18:41:54.422Z,1.60
2023-05-05T18:44:20.820Z,1.30
2023-05-05T18:46:48.561Z,1.50
2023-05-05T18:49:15.232Z,1.92
2023-05-05T18:51:41.692Z,4.30
2023-05-05T18:54:08.158Z,3.28
2023-05-05T18:56:34.749Z,2.67
2023-05-05T18:59:01.297Z,2.22
2023-05-05T19:01:27.827Z,2.05
2023-05-05T19:03:54.287Z,1.65
2023-05-05T19:06:23.150Z,1.45
2023-05-05T19:08:49.759Z,2.10
2023-05-05T19:11:18.479Z,1.55
2023-05-05T19:13:45.291Z,1.70
2023-05-05T19:16:14.552Z,1.70
2023-05-05T19:18:45.822Z,2.55
2023-05-05T19:21:14.568Z,1.75
2023-05-05T19:23:40.970Z,1.63
2023-05-05T19:26:07.345Z,2.03
2023-05-05T19:28:33.890Z,2.10
2023-05-05T19:31:00.314Z,2.00
2023-05-05T19:33:27.062Z,1.95
2023-05-05T19:35:56.513Z,1.83
2023-05-05T19:38:25.032Z,2.00
2023-05-05T19:40:54.059Z,2.05
2023-05-05T19:43:20.393Z,1.85
2023-05-05T19:45:49.198Z,1.85
2023-05-05T19:48:16.211Z,2.00
2023-05-05T19:50:42.620Z,2.03
2023-05-05T19:53:14.308Z,2.20
2023-05-05T19:55:40.800Z,2.13
2023-05-05T19:58:07.142Z,2.45
2023-05-05T20:00:38.487Z,1.92
2023-05-05T20:03:04.946Z,2.13
2023-05-05T20:05:31.434Z,2.15
2023-05-05T20:07:57.791Z,2.58
2023-05-05T20:10:26.586Z,2.38
2023-05-05T20:12:57.924Z,2.78
2023-05-05T20:15:24.367Z,2.25
2023-05-05T20:17:50.791Z,3.10
2023-05-05T20:20:22.202Z,2.83
2023-05-05T20:22:49.282Z,3.00
2023-05-05T20:25:18.612Z,2.97
2023-05-05T20:27:45.740Z,2.55
2023-05-05T20:30:15.154Z,1.83
2023-05-05T20:32:41.648Z,1.85
2023-05-05T20:35:08.968Z,2.88
2023-05-05T20:37:35.500Z,1.60
2023-05-05T20:40:04.226Z,2.42
2023-05-05T20:42:30.707Z,2.05
2023-05-05T20:44:57.570Z,2.00
2023-05-05T20:47:24.280Z,2.17
2023-05-05T20:49:53.267Z,1.77
2023-05-05T20:52:19.933Z,3.53
2023-05-05T20:54:49.582Z,1.80
2023-05-05T20:57:15.906Z,2.38
2023-05-05T20:59:42.272Z,2.78
2023-05-05T21:02:11.026Z,2.10
2023-05-05T21:04:37.577Z,2.42
2023-05-05T21:07:04.076Z,3.25
2023-05-05T21:09:31.353Z,2.50
2023-05-05T21:11:57.701Z,3.00
2023-05-05T21:14:24.381Z,3.03
2023-05-05T21:16:50.900Z,2.70
2023-05-05T21:19:17.410Z,3.20
2023-05-05T21:21:44.216Z,2.97
2023-05-05T21:24:12.844Z,2.80
2023-05-05T21:26:43.230Z,1.92
2023-05-05T21:29:09.710Z,2.55
2023-05-05T21:31:40.809Z,2.95
2023-05-05T21:34:07.250Z,3.17
2023-05-05T21:36:34.184Z,2.42
2023-05-05T21:39:00.851Z,2.63
2023-05-05T21:41:27.194Z,2.63
2023-05-05T21:43:56.258Z,2.47
2023-05-05T21:46:22.861Z,3.30
2023-05-05T21:48:49.452Z,2.67
2023-05-05T21:51:16.117Z,3.20
2023-05-05T21:53:42.674Z,2.70
2023-05-05T21:56:09.135Z,2.78
2023-05-05T21:58:35.691Z,2.67
2023-05-05T22:01:02.406Z,1.65
2023-05-05T22:03:31.325Z,2.00
2023-05-05T22:05:57.959Z,2.20
2023-05-05T22:08:24.354Z,2.38
2023-05-05T22:10:50.826Z,2.30
2023-05-05T22:13:19.480Z,2.22
2023-05-05T22:15:47.439Z,2.08
2023-05-05T22:18:15.025Z,2.58
2023-05-05T22:20:41.497Z,2.50
2023-05-05T22:23:08.059Z,3.13
2023-05-05T22:25:34.979Z,1.58
2023-05-05T22:28:01.466Z,2.88
2023-05-05T22:30:27.889Z,2.40
2023-05-05T22:32:54.925Z,2.13
2023-05-05T22:35:23.769Z,2.70
2023-05-05T22:37:50.339Z,2.10
2023-05-05T22:40:16.856Z,2.03
2023-05-05T22:42:43.358Z,2.15
2023-05-05T22:45:10.313Z,2.03
2023-05-05T22:47:37.198Z,2.33
2023-05-05T22:50:03.708Z,2.00
2023-05-05T22:52:30.545Z,2.38
2023-05-05T22:54:59.224Z,2.03
2023-05-05T22:57:25.682Z,2.33
2023-05-05T22:59:52.405Z,2.28
2023-05-05T23:02:18.800Z,2.15
2023-05-05T23:04:45.470Z,2.50
2023-05-05T23:07:12.736Z,2.33
2023-05-05T23:09:39.632Z,2.05
2023-05-05T23:12:08.487Z,1.90
2023-05-05T23:14:35.914Z,2.17
2023-05-05T23:17:02.377Z,2.42
2023-05-05T23:19:29.139Z,1.83
2023-05-05T23:22:00.335Z,1.70
2023-05-05T23:24:27.733Z,1.97
2023-05-05T23:26:54.704Z,1.58
2023-05-05T23:29:21.247Z,1.65
2023-05-05T23:31:50.326Z,1.73
2023-05-05T23:34:19.166Z,1.90
2023-05-05T23:36:45.590Z,2.00
2023-05-05T23:39:14.544Z,1.42
2023-05-05T23:41:40.957Z,2.08
2023-05-05T23:44:07.449Z,1.88
2023-05-05T23:46:33.931Z,1.52
2023-05-05T23:49:01.938Z,1.45
2023-05-05T23:51:28.390Z,2.50
2023-05-05T23:53:57.156Z,2.63
2023-05-05T23:56:24.480Z,1.60
2023-05-05T23:58:52.324Z,1.40
